»·PEaware :: UAL723 KDEN-KLAX

UAL723 :: KDEN-KLAX

FLIGHT INFORMATION

Flight Status: Arrived
Operator:
United Airlines
More flights by this operator :: More flights under this callsign
Pilot: Brandon G. (13)
Aircraft: BOEING 757-200
(B752)
More flights by this aircraft type
Origin: KDEN Denver Intl
United States
Destination: KLAX Los Angeles Intl
United States
More flights between these airports :: More routes between these airports
Route: +CONNR4 DBL CHESZ Q88 HAKMN ANJLL1
File this flight plan on PilotEdge
Remarks:
Altitude:
(Current/Filed)
38,000ft
Speed:
(Current/Filed)
425kts
Departed: 09-Sep-17 08:18 AM
Arrived: 09-Sep-17 10:13 AM
Distance/Time
Traveled:
748nm/1:54
Distance/Time
To Go:
Arrived

Flight Plot

Page will automatically refresh every two minutes.

Flight plan parsing failed; only flown route is shown


Map Options




Map Legend


Flown Route
Filed Route
Departure Airport
Arrival Airport
Navaid (VOR, NDB)
Fix

Horizontal Profiles

Position Reports

Time Latitude Longitude Heading Altitude Ground
Speed
09-Sep-17 07:51 39.858089 -104.677110 0 5445ft 0kts
09-Sep-17 07:52 39.858089 -104.677110 0 5445ft 0kts
09-Sep-17 07:53 39.858089 -104.677110 0 5445ft 0kts
09-Sep-17 07:54 39.858089 -104.677110 0 5445ft 0kts
09-Sep-17 07:55 39.858089 -104.677110 0 5445ft 0kts
09-Sep-17 07:56 39.858089 -104.677110 0 5445ft 0kts
09-Sep-17 07:57 39.858089 -104.677110 0 5445ft 0kts
09-Sep-17 07:58 39.858089 -104.677110 0 5445ft 0kts
09-Sep-17 07:59 39.858089 -104.677110 0 5445ft 0kts
09-Sep-17 08:00 39.858089 -104.677110 0 5445ft 0kts
09-Sep-17 08:01 39.858089 -104.677110 0 5445ft 0kts
09-Sep-17 08:02 39.858089 -104.677110 0 5445ft 0kts
09-Sep-17 08:03 39.858089 -104.677110 0 5445ft 0kts
09-Sep-17 08:04 39.858089 -104.677110 0 5445ft 0kts
09-Sep-17 08:05 39.858089 -104.677110 0 5445ft 0kts
09-Sep-17 08:06 39.858089 -104.677110 0 5445ft 0kts
09-Sep-17 08:07 39.858089 -104.677110 0 5445ft 0kts
09-Sep-17 08:08 39.858089 -104.677110 0 5445ft 0kts
09-Sep-17 08:09 39.858089 -104.677110 0 5445ft 0kts
09-Sep-17 08:10 39.858089 -104.677110 0 5445ft 0kts
09-Sep-17 08:11 39.857944 -104.677111 0 5446ft 2kts
09-Sep-17 08:12 39.857521 -104.676897 296 5445ft 2kts
09-Sep-17 08:13 39.857492 -104.676685 256 5445ft 0kts
09-Sep-17 08:14 39.857491 -104.676690 256 5445ft 0kts
09-Sep-17 08:15 39.857491 -104.676690 256 5445ft 0kts
09-Sep-17 08:16 39.857408 -104.677151 256 5445ft 4kts
09-Sep-17 08:17 39.856811 -104.682934 275 5446ft 22kts
09-Sep-17 08:18 39.851278 -104.683910 180 5445ft 27kts
09-Sep-17 08:19 39.842789 -104.683978 181 5445ft 34kts
09-Sep-17 08:20 39.841948 -104.683998 180 5445ft 0kts
09-Sep-17 08:21 39.840652 -104.684953 266 5445ft 16kts
09-Sep-17 08:22 39.840777 -104.731779 268 6012ft 199kts
09-Sep-17 08:23 39.838569 -104.802108 268 7711ft 271kts
09-Sep-17 08:24 39.836608 -104.902957 271 10164ft 299kts
09-Sep-17 08:25 39.828799 -105.043892 255 13168ft 364kts
09-Sep-17 08:26 39.806723 -105.149822 254 16090ft 374kts
09-Sep-17 08:27 39.777215 -105.281262 253 19151ft 387kts
09-Sep-17 08:28 39.747662 -105.416610 255 21817ft 401kts
09-Sep-17 08:29 39.717352 -105.556816 255 23515ft 411kts
09-Sep-17 08:30 39.692180 -105.698258 262 23755ft 410kts
09-Sep-17 08:31 39.675707 -105.845811 262 25697ft 419kts
09-Sep-17 08:32 39.660825 -105.996627 262 27696ft 430kts
09-Sep-17 08:33 39.643652 -106.151384 262 29480ft 441kts
09-Sep-17 08:34 39.623980 -106.309566 254 30993ft 453kts
09-Sep-17 08:35 39.577125 -106.461540 248 32584ft 459kts
09-Sep-17 08:36 39.528483 -106.611474 248 34477ft 455kts
09-Sep-17 08:37 39.481723 -106.758343 248 36117ft 451kts
09-Sep-17 08:38 39.433597 -106.907376 246 37490ft 452kts
09-Sep-17 08:39 39.381343 -107.054409 246 38439ft 453kts
09-Sep-17 08:40 39.329078 -107.200503 245 38650ft 451kts
09-Sep-17 08:41 39.277264 -107.346850 247 38655ft 450kts
09-Sep-17 08:42 39.226783 -107.493446 246 38656ft 449kts
09-Sep-17 08:43 39.174944 -107.639285 246 38658ft 450kts
09-Sep-17 08:44 39.123867 -107.779254 244 38608ft 451kts
09-Sep-17 08:45 39.070982 -107.925033 245 38330ft 450kts
09-Sep-17 08:46 39.018317 -108.070054 246 38298ft 450kts
09-Sep-17 08:47 38.965962 -108.215158 244 38301ft 450kts
09-Sep-17 08:48 38.912890 -108.359416 244 38300ft 450kts
09-Sep-17 08:49 38.861688 -108.501325 244 38256ft 450kts
09-Sep-17 08:50 38.808622 -108.645647 244 38258ft 450kts
09-Sep-17 08:51 38.756709 -108.785264 243 38255ft 450kts
09-Sep-17 08:52 38.703199 -108.928091 243 38257ft 448kts
09-Sep-17 08:53 38.649963 -109.071155 243 38250ft 448kts
09-Sep-17 08:54 38.594369 -109.213071 243 38229ft 448kts
09-Sep-17 08:55 38.542021 -109.356476 243 38228ft 448kts
09-Sep-17 08:56 38.488228 -109.498900 243 38227ft 447kts
09-Sep-17 08:57 38.433909 -109.641319 243 38226ft 448kts
09-Sep-17 08:58 38.380318 -109.781132 242 38228ft 446kts
09-Sep-17 08:59 38.325610 -109.923114 241 38227ft 447kts
09-Sep-17 09:00 38.267743 -110.061816 239 38233ft 446kts
09-Sep-17 09:01 38.212798 -110.201049 240 38263ft 445kts
09-Sep-17 09:02 38.155884 -110.338954 240 38264ft 446kts
09-Sep-17 09:03 38.097909 -110.477599 240 38262ft 446kts
09-Sep-17 09:04 38.039715 -110.616002 240 38261ft 446kts
09-Sep-17 09:05 37.982715 -110.749767 238 38261ft 446kts
09-Sep-17 09:06 37.923914 -110.886735 238 38261ft 445kts
09-Sep-17 09:07 37.866591 -111.021042 238 38268ft 445kts
09-Sep-17 09:08 37.808270 -111.157330 239 38269ft 445kts
09-Sep-17 09:09 37.749928 -111.293433 239 38313ft 440kts
09-Sep-17 09:10 37.691719 -111.428220 238 38439ft 440kts
09-Sep-17 09:11 37.633424 -111.562599 238 38439ft 440kts
09-Sep-17 09:12 37.576471 -111.693489 238 38440ft 440kts
09-Sep-17 09:13 37.518024 -111.827312 237 38438ft 437kts
09-Sep-17 09:14 37.451399 -111.952752 231 38438ft 434kts
09-Sep-17 09:15 37.380628 -112.074711 231 38437ft 434kts
09-Sep-17 09:16 37.308917 -112.194866 230 38437ft 434kts
09-Sep-17 09:17 37.238146 -112.315171 230 38436ft 427kts
09-Sep-17 09:18 37.168713 -112.434199 231 38436ft 427kts
09-Sep-17 09:19 37.098693 -112.552871 230 38343ft 427kts
09-Sep-17 09:20 37.030759 -112.666853 226 38342ft 425kts
09-Sep-17 09:21 36.957289 -112.781257 228 38342ft 424kts
09-Sep-17 09:22 36.888081 -112.895569 230 38348ft 425kts
09-Sep-17 09:23 36.819090 -113.014815 231 38351ft 426kts
09-Sep-17 09:24 36.751005 -113.133873 229 38349ft 425kts
09-Sep-17 09:25 36.681364 -113.250166 229 38340ft 423kts
09-Sep-17 09:26 36.612128 -113.363981 230 38334ft 424kts
09-Sep-17 09:27 36.544278 -113.482300 229 38239ft 423kts
09-Sep-17 09:28 36.475470 -113.598449 229 38236ft 423kts
09-Sep-17 09:29 36.409463 -113.714538 233 38239ft 425kts
09-Sep-17 09:30 36.345340 -113.832569 230 38234ft 425kts
09-Sep-17 09:31 36.278151 -113.950480 230 38235ft 424kts
09-Sep-17 09:32 36.210432 -114.068002 230 38198ft 423kts
09-Sep-17 09:33 36.142159 -114.185913 230 38196ft 423kts
09-Sep-17 09:34 36.072889 -114.301627 224 38194ft 419kts
09-Sep-17 09:35 35.995615 -114.408502 224 38193ft 419kts
09-Sep-17 09:36 35.918291 -114.515157 224 38187ft 419kts
09-Sep-17 09:37 35.841493 -114.619248 223 38205ft 419kts
09-Sep-17 09:38 35.765645 -114.724451 224 38205ft 419kts
09-Sep-17 09:39 35.688068 -114.829778 224 38204ft 419kts
09-Sep-17 09:40 35.610902 -114.935177 224 38202ft 419kts
09-Sep-17 09:41 35.533567 -115.040731 224 38203ft 419kts
09-Sep-17 09:42 35.455408 -115.144159 222 38218ft 419kts
09-Sep-17 09:43 35.377755 -115.244733 224 38080ft 419kts
09-Sep-17 09:44 35.298683 -115.349683 224 38074ft 421kts
09-Sep-17 09:45 35.220219 -115.452196 224 38078ft 422kts
09-Sep-17 09:46 35.140225 -115.555841 224 38076ft 422kts
09-Sep-17 09:47 35.064985 -115.652540 223 38073ft 421kts
09-Sep-17 09:48 34.990633 -115.746506 223 38159ft 421kts
09-Sep-17 09:49 34.910006 -115.849847 225 38199ft 423kts
09-Sep-17 09:50 34.833024 -115.949131 224 38203ft 423kts
09-Sep-17 09:51 34.752192 -116.052091 224 38204ft 423kts
09-Sep-17 09:52 34.674477 -116.150129 224 37945ft 385kts
09-Sep-17 09:53 34.600102 -116.242409 224 35612ft 388kts
09-Sep-17 09:54 34.525114 -116.335611 226 33051ft 394kts
09-Sep-17 09:55 34.449386 -116.430745 227 30815ft 401kts
09-Sep-17 09:56 34.387318 -116.540296 242 28863ft 399kts
09-Sep-17 09:57 34.340218 -116.653737 242 27237ft 392kts
09-Sep-17 09:58 34.295554 -116.769390 242 25337ft 379kts
09-Sep-17 09:59 34.250632 -116.881913 242 23420ft 371kts
09-Sep-17 10:00 34.207565 -116.992120 249 21630ft 365kts
09-Sep-17 10:01 34.176364 -117.107126 249 19403ft 363kts
09-Sep-17 10:02 34.144891 -117.222175 249 17196ft 362kts
09-Sep-17 10:03 34.113644 -117.335542 249 15233ft 355kts
09-Sep-17 10:04 34.084978 -117.446529 250 13532ft 342kts
09-Sep-17 10:05 34.053589 -117.549590 244 12266ft 325kts
09-Sep-17 10:06 34.018111 -117.648018 244 10735ft 317kts
09-Sep-17 10:07 34.000086 -117.742929 259 10207ft 283kts
09-Sep-17 10:08 33.991111 -117.836414 260 8746ft 274kts
09-Sep-17 10:09 33.983248 -117.925054 259 7394ft 264kts
09-Sep-17 10:10 33.974840 -118.012604 260 5951ft 268kts
09-Sep-17 10:11 33.966440 -118.097765 260 4794ft 251kts
09-Sep-17 10:12 33.958310 -118.178596 261 3458ft 239kts
09-Sep-17 10:13 33.950577 -118.254500 263 2243ft 216kts
09-Sep-17 10:14 33.944431 -118.314454 263 1248ft 146kts
09-Sep-17 10:15 33.939791 -118.359519 265 509ft 132kts
09-Sep-17 10:16 33.935807 -118.398175 263 116ft 50kts
09-Sep-17 10:17 33.936159 -118.403311 291 123ft 0kts
09-Sep-17 10:18 33.936238 -118.403742 272 124ft 5kts
09-Sep-17 10:19 33.935960 -118.406930 261 130ft 16kts
09-Sep-17 10:20 33.938022 -118.407514 87 130ft 15kts

Navigation Log

Ident Type
Flight plan parsing failed, navigation log unavailable